Flight Track Log - Related Links

Times and Time Zones

All times are in EST time to prevent confusion due to time zone crossing. See the DCM1130 flight status page for this flight to view local times or setup timezone preferences in your user account.

Time Position Orientation Groundspeed Altitude Reporting Facility
EST Latitude Longitude Course Direction KTS MPH feet Rate Location/Type
Mon 06:39:23 AM 40.0667 -75.0333 270° West 179 206 1,000  Level Philadelphia TRACON
Mon 06:40:29 AM 40.0667 -75.1000 270° West 195 224 3,200 1,309 Climbing Philadelphia TRACON
Mon 06:42:31 AM 40.0219 -75.2597 250° West 245 282 5,100 1,319 Climbing New York Center
Mon 06:43:31 AM 39.9939 -75.3336 244° Southwest 245 282 7,200 2,150 Climbing New York Center
Mon 06:44:31 AM 39.9783 -75.4111 255° West 230 265 9,400 1,700 Climbing New York Center
Mon 06:45:31 AM 39.9750 -75.5006 267° West 236 272 10,600 2,050 Climbing New York Center
Mon 06:46:31 AM 39.9711 -75.5950 267° West 255 293 13,500 2,650 Climbing New York Center
Mon 06:47:31 AM 39.9711 -75.6953 270° West 275 316 15,900 2,400 Climbing New York Center
Mon 06:48:31 AM 39.9667 -75.7978 267° West 280 322 18,300 2,050 Climbing New York Center
Mon 06:49:31 AM 39.9397 -75.8933 250° West 285 328 20,000 1,950 Climbing New York Center
Mon 06:50:31 AM 39.9042 -75.9883 244° Southwest 290 334 22,200 1,850 Climbing New York Center
Mon 06:51:31 AM 39.8667 -76.0828 243° Southwest 295 339 23,700 1,500 Climbing New York Center
Mon 06:52:31 AM 39.8247 -76.1797 241° Southwest 300 345 25,200 1,348 Climbing New York Center
Mon 06:54:29 AM 39.7239 -76.3442 231° Southwest 319 367 27,700 1,146 Climbing Washington Center
Mon 06:55:29 AM 39.6647 -76.4381 231° Southwest 325 374 28,600 1,017 Climbing Washington Center
Mon 06:56:27 AM 39.5933 -76.5422 228° Southwest 342 394 29,700 1,068 Climbing Washington Center
Mon 06:57:27 AM 39.5342 -76.6356 231° Southwest 348 400 30,700 942 Climbing Washington Center
Mon 06:58:28 AM 39.4728 -76.7342 231° Southwest 348 400 31,600 958 Climbing Washington Center
Mon 06:59:26 AM 39.4136 -76.8244 230° Southwest 348 400 32,600 958 Climbing Washington Center
Mon 07:00:27 AM 39.3522 -76.9200 230° Southwest 348 400 33,500 934 Climbing Washington Center
Mon 07:01:28 AM 39.2928 -77.0103 230° Southwest 343 395 34,500 934 Climbing Washington Center
Mon 07:02:29 AM 39.2353 -77.1003 230° Southwest 343 395 35,400 756 Climbing Washington Center
Mon 07:03:27 AM 39.1864 -77.1903 235° Southwest 336 387 36,000 305 Climbing Washington Center
Mon 07:04:27 AM 39.1514 -77.2992 248° West 325 374 36,000  Level Washington Center
Mon 07:05:27 AM 39.1186 -77.4108 249° West 332 382 36,000  Level Washington Center
Mon 07:06:27 AM 39.0856 -77.5278 250° West 343 395 36,000  Level Washington Center
Mon 07:07:28 AM 39.0439 -77.6442 245° Southwest 353 406 36,000  Level Washington Center
Mon 07:08:29 AM 38.9775 -77.7411 229° Southwest 366 421 36,000  Level Washington Center
Mon 07:09:29 AM 38.9094 -77.8272 225° Southwest 376 433 36,000  Level Washington Center
Mon 07:10:29 AM 38.8303 -77.9314 226° Southwest 376 433 36,000  Level Washington Center
Mon 07:11:27 AM 38.7575 -78.0250 225° Southwest 371 427 36,000  Level Washington Center
Mon 07:12:28 AM 38.6847 -78.1156 224° Southwest 371 427 36,000  Level Washington Center
Mon 07:13:28 AM 38.6183 -78.2036 226° Southwest 371 427 36,000  Level Washington Center
Mon 07:14:27 AM 38.5367 -78.3042 224° Southwest 371 427 36,000  Level Washington Center
Mon 07:15:27 AM 38.4636 -78.3997 226° Southwest 371 427 36,000  Level Washington Center
Mon 07:16:28 AM 38.3883 -78.4950 225° Southwest 371 427 36,000  Level Washington Center
Mon 07:17:29 AM 38.3153 -78.5900 226° Southwest 371 427 36,000  Level Washington Center
Mon 07:18:28 AM 38.2419 -78.6850 226° Southwest 371 427 36,000  Level Washington Center
Mon 07:19:28 AM 38.1683 -78.7794 225° Southwest 371 427 36,000  Level Washington Center
Mon 07:20:28 AM 38.0931 -78.8739 225° Southwest 371 427 36,000  Level Washington Center
Mon 07:21:27 AM 38.0239 -78.9606 225° Southwest 371 427 36,000  Level Washington Center
Mon 07:22:27 AM 37.9481 -79.0547 224° Southwest 376 433 36,000  Level Washington Center
Mon 07:23:29 AM 37.8761 -79.1592 229° Southwest 381 438 36,000  Level Washington Center
Mon 07:24:28 AM 37.8206 -79.2722 238° Southwest 386 444 36,000  Level Washington Center
Mon 07:25:28 AM 37.7603 -79.3981 239° Southwest 386 444 36,000  Level Washington Center
Mon 07:26:29 AM 37.7028 -79.5053 236° Southwest 381 438 36,000  Level Washington Center
Mon 07:27:27 AM 37.6469 -79.6153 237° Southwest 381 438 36,000  Level Washington Center
Mon 07:28:27 AM 37.5908 -79.7278 238° Southwest 381 438 36,000  Level Washington Center
Mon 07:29:28 AM 37.5350 -79.8397 238° Southwest 381 438 36,000  Level Washington Center
Mon 07:30:28 AM 37.4786 -79.9572 239° Southwest 388 447 36,000  Level Washington Center
Mon 07:31:29 AM 37.4222 -80.0664 237° Southwest 388 447 36,000  Level Washington Center
Mon 07:32:41 AM 37.3556 -80.1933 237° Southwest 373 429 36,000  Level Atlanta Center
Mon 07:33:41 AM 37.2983 -80.3003 236° Southwest 368 423 36,000  Level Atlanta Center
Mon 07:34:41 AM 37.2411 -80.4125 237° Southwest 379 436 36,000  Level Atlanta Center
Mon 07:35:41 AM 37.1839 -80.5247 237° Southwest 379 436 36,000 50 Level Atlanta Center
Mon 07:36:41 AM 37.1206 -80.6447 237° Southwest 379 436 36,100 250 Climbing Atlanta Center
Mon 07:37:41 AM 37.0653 -80.7536 238° Southwest 379 436 36,500 400 Climbing Atlanta Center
Mon 07:38:41 AM 37.0119 -80.8625 238° Southwest 379 436 36,900 400 Climbing Atlanta Center
Mon 07:39:41 AM 36.9561 -80.9686 237° Southwest 379 436 37,300 450 Climbing Atlanta Center
Mon 07:40:41 AM 36.9106 -81.0586 238° Southwest 368 423 37,800 350 Climbing Atlanta Center
Mon 07:41:41 AM 36.8586 -81.1567 237° Southwest 363 418 38,000 100 Climbing Atlanta Center
Mon 07:42:41 AM 36.8047 -81.2622 238° Southwest 357 411 38,000  Level Atlanta Center
Mon 07:43:41 AM 36.7508 -81.3756 239° Southwest 352 405 38,000  Level Atlanta Center
Mon 07:44:41 AM 36.6969 -81.4833 238° Southwest 352 405 38,000  Level Atlanta Center
Mon 07:45:41 AM 36.6408 -81.5886 236° Southwest 364 419 38,000  Level Atlanta Center
Mon 07:46:41 AM 36.5822 -81.6964 236° Southwest 376 433 38,000  Level Atlanta Center
Mon 07:47:41 AM 36.5281 -81.8067 239° Southwest 376 433 38,000  Level Atlanta Center
Mon 07:48:41 AM 36.4717 -81.9114 236° Southwest 376 433 38,000  Level Atlanta Center
Mon 07:49:41 AM 36.4150 -82.0214 237° Southwest 376 433 38,000  Level Atlanta Center
Mon 07:50:41 AM 36.3564 -82.1311 236° Southwest 376 433 38,000  Level Atlanta Center
Mon 07:51:41 AM 36.2994 -82.2356 236° Southwest 376 433 38,000  Level Atlanta Center
Mon 07:52:41 AM 36.2425 -82.3447 237° Southwest 376 433 38,000  Level Atlanta Center
Mon 07:53:41 AM 36.1878 -82.4489 237° Southwest 376 433 38,000  Level Atlanta Center
Mon 07:54:41 AM 36.1306 -82.5553 236° Southwest 376 433 38,000  Level Atlanta Center
Mon 07:55:41 AM 36.0736 -82.6617 237° Southwest 376 433 38,000  Level Atlanta Center
Mon 07:56:41 AM 36.0183 -82.7653 237° Southwest 376 433 38,000  Level Atlanta Center
Mon 07:57:41 AM 35.9608 -82.8714 236° Southwest 376 433 38,000  Level Atlanta Center
Mon 07:58:41 AM 35.9036 -82.9800 237° Southwest 381 438 38,000  Level Atlanta Center
Mon 07:59:41 AM 35.8458 -83.0831 235° Southwest 373 429 38,000  Level Atlanta Center
Mon 08:00:41 AM 35.7903 -83.1889 237° Southwest 380 437 38,000  Level Atlanta Center
Mon 08:01:41 AM 35.7347 -83.2942 237° Southwest 380 437 38,000  Level Atlanta Center
Mon 08:02:41 AM 35.6769 -83.3997 236° Southwest 375 432 38,000  Level Atlanta Center
Mon 08:03:41 AM 35.6192 -83.5075 237° Southwest 375 432 38,000  Level Atlanta Center
Mon 08:04:41 AM 35.5589 -83.6125 235° Southwest 375 432 38,000  Level Atlanta Center
Mon 08:05:41 AM 35.5031 -83.7200 237° Southwest 375 432 38,000  Level Atlanta Center
Mon 08:06:41 AM 35.4447 -83.8247 236° Southwest 380 437 38,000  Level Atlanta Center
Mon 08:07:41 AM 35.3844 -83.9292 235° Southwest 380 437 38,000  Level Atlanta Center
Mon 08:08:41 AM 35.3281 -84.0361 237° Southwest 380 437 38,000  Level Atlanta Center
Mon 08:09:41 AM 35.2675 -84.1406 235° Southwest 380 437 38,000  Level Atlanta Center
Mon 08:10:41 AM 35.2092 -84.2472 236° Southwest 380 437 38,000  Level Atlanta Center
Mon 08:11:41 AM 35.1503 -84.3511 235° Southwest 380 437 38,000  Level Atlanta Center
Mon 08:12:41 AM 35.0917 -84.4575 236° Southwest 380 437 38,000  Level Atlanta Center
Mon 08:13:41 AM 35.0328 -84.5614 235° Southwest 380 437 38,000  Level Atlanta Center
Mon 08:14:41 AM 34.9719 -84.6675 235° Southwest 380 437 38,000  Level Atlanta Center
Mon 08:15:41 AM 34.9128 -84.7733 236° Southwest 380 437 38,000  Level Atlanta Center
Mon 08:16:41 AM 34.8600 -84.8664 235° Southwest 380 437 38,000  Level Atlanta Center
Mon 08:17:41 AM 34.8008 -84.9722 236° Southwest 380 437 38,000  Level Atlanta Center
Mon 08:18:41 AM 34.7394 -85.0803 235° Southwest 380 437 38,000  Level Atlanta Center
Mon 08:19:41 AM 34.6803 -85.1806 234° Southwest 374 430 38,000  Level Atlanta Center
Mon 08:20:41 AM 34.6228 -85.2858 236° Southwest 379 436 38,000  Level Atlanta Center
Mon 08:21:41 AM 34.5611 -85.3858 233° Southwest 379 436 38,000  Level Atlanta Center
Mon 08:22:41 AM 34.5036 -85.4881 236° Southwest 379 436 38,000  Level Atlanta Center
Mon 08:23:41 AM 34.4439 -85.5931 235° Southwest 379 436 38,000  Level Atlanta Center
Mon 08:24:41 AM 34.3842 -85.6950 235° Southwest 379 436 38,000  Level Atlanta Center
Mon 08:25:41 AM 34.3306 -85.7944 237° Southwest 371 427 38,000  Level Atlanta Center
Mon 08:26:41 AM 34.2667 -85.8939 232° Southwest 371 427 38,000  Level Atlanta Center
Mon 08:27:41 AM 34.2067 -85.9956 235° Southwest 377 434 38,000  Level Atlanta Center
Mon 08:28:41 AM 34.1486 -86.0944 235° Southwest 377 434 38,000  Level Atlanta Center
Mon 08:29:41 AM 34.0886 -86.1933 234° Southwest 377 434 38,000  Level Atlanta Center
Mon 08:30:41 AM 34.0283 -86.2947 234° Southwest 377 434 38,000  Level Atlanta Center
Mon 08:31:41 AM 33.9700 -86.3958 235° Southwest 377 434 38,000  Level Atlanta Center
Mon 08:32:41 AM 33.9094 -86.4967 234° Southwest 377 434 38,000  Level Atlanta Center
Mon 08:33:41 AM 33.8492 -86.5975 234° Southwest 377 434 38,000  Level Atlanta Center
Mon 08:34:41 AM 33.7864 -86.6983 233° Southwest 377 434 38,000  Level Atlanta Center
Mon 08:35:41 AM 33.7278 -86.7964 234° Southwest 377 434 38,000  Level Atlanta Center
Mon 08:36:41 AM 33.6714 -86.8992 237° Southwest 377 434 38,000  Level Atlanta Center
Mon 08:38:40 AM 33.5850 -87.1114 244° Southwest 359 413 38,000  Level Memphis Center
Mon 08:39:42 AM 33.5419 -87.2183 244° Southwest 357 411 38,000  Level Memphis Center
Mon 08:40:43 AM 33.4994 -87.3250 244° Southwest 355 409 38,000  Level Memphis Center
Mon 08:41:45 AM 33.4561 -87.4311 244° Southwest 356 410 38,000  Level Memphis Center
Mon 08:42:47 AM 33.4061 -87.5586 245° Southwest 353 406 38,000  Level Memphis Center
Mon 08:43:48 AM 33.3628 -87.6625 243° Southwest 350 403 38,000  Level Memphis Center
Mon 08:44:50 AM 33.3197 -87.7689 244° Southwest 353 406 38,000  Level Memphis Center
Mon 08:45:52 AM 33.2764 -87.8744 244° Southwest 354 407 38,000  Level Memphis Center
Mon 08:46:53 AM 33.2339 -87.9792 244° Southwest 351 404 38,000  Level Memphis Center
Mon 08:47:55 AM 33.1903 -88.0822 243° Southwest 349 402 38,000  Level Memphis Center
Mon 08:48:57 AM 33.1486 -88.1883 245° Southwest 352 405 38,000  Level Memphis Center
Mon 08:49:59 AM 33.0989 -88.3044 243° Southwest 350 403 38,000  Level Memphis Center
Mon 08:51:00 AM 33.0567 -88.4089 244° Southwest 350 403 38,000  Level Memphis Center
Mon 08:52:02 AM 33.0133 -88.5108 243° Southwest 349 402 38,000  Level Memphis Center
Mon 08:53:04 AM 32.9708 -88.6150 244° Southwest 350 403 38,000  Level Memphis Center
Mon 08:54:06 AM 32.9189 -88.7383 243° Southwest 349 402 38,000  Level Memphis Center
Mon 08:55:08 AM 32.8750 -88.8408 243° Southwest 350 403 38,000  Level Memphis Center
Mon 08:56:09 AM 32.8322 -88.9433 244° Southwest 348 400 38,000  Level Memphis Center
Mon 08:57:11 AM 32.7892 -89.0467 244° Southwest 349 402 38,000  Level Memphis Center
Mon 08:58:13 AM 32.7444 -89.1500 243° Southwest 351 404 38,000  Level Memphis Center
Mon 08:59:15 AM 32.7014 -89.2536 244° Southwest 352 405 38,000  Level Memphis Center
Mon 09:00:17 AM 32.6567 -89.3589 243° Southwest 354 407 38,000  Level Memphis Center
Mon 09:01:19 AM 32.6028 -89.4844 243° Southwest 355 409 38,000  Level Memphis Center
Mon 09:02:20 AM 32.5572 -89.5886 243° Southwest 356 410 38,000  Level Memphis Center
Mon 09:03:22 AM 32.5122 -89.6933 243° Southwest 356 410 38,000  Level Memphis Center
Mon 09:04:24 AM 32.4675 -89.7978 243° Southwest 356 410 38,000  Level Memphis Center
Mon 09:05:26 AM 32.4228 -89.9031 243° Southwest 357 411 38,000  Level Memphis Center
Mon 09:06:28 AM 32.3775 -90.0069 243° Southwest 357 411 38,000  Level Memphis Center
Mon 09:07:29 AM 32.3314 -90.1117 242° Southwest 359 413 38,000  Level Memphis Center
Mon 09:08:31 AM 32.2767 -90.2375 243° Southwest 359 413 38,000  Level Memphis Center
Mon 09:09:33 AM 32.2317 -90.3419 243° Southwest 359 413 38,000  Level Memphis Center
Mon 09:10:35 AM 32.1844 -90.4461 242° Southwest 360 414 38,000  Level Memphis Center
Mon 09:11:37 AM 32.1389 -90.5522 243° Southwest 362 417 38,000  Level Memphis Center
Mon 09:12:10 AM 32.1128 -90.6108 242° Southwest 360 414 38,000  Level Houston Center
Mon 09:13:12 AM 32.0664 -90.7150 242° Southwest 360 414 38,000  Level Houston Center
Mon 09:14:14 AM 32.0111 -90.8378 242° Southwest 361 415 38,000  Level Houston Center
Mon 09:15:16 AM 31.9714 -90.9286 243° Southwest 361 415 38,000  Level Houston Center
Mon 09:16:18 AM 31.9253 -91.0333 243° Southwest 360 414 38,000  Level Houston Center
Mon 09:17:19 AM 31.8703 -91.1578 243° Southwest 360 414 38,000  Level Houston Center
Mon 09:18:21 AM 31.8225 -91.2608 241° Southwest 360 414 38,000  Level Houston Center
Mon 09:19:23 AM 31.7769 -91.3631 242° Southwest 357 411 38,000  Level Houston Center
Mon 09:20:25 AM 31.7303 -91.4653 242° Southwest 356 410 38,000  Level Houston Center
Mon 09:21:27 AM 31.6847 -91.5678 242° Southwest 356 410 38,000  Level Houston Center
Mon 09:22:29 AM 31.6381 -91.6697 242° Southwest 356 410 38,000  Level Houston Center
Mon 09:23:31 AM 31.5819 -91.7922 242° Southwest 356 410 38,000  Level Houston Center
Mon 09:24:33 AM 31.5361 -91.8950 242° Southwest 356 410 38,000  Level Houston Center
Mon 09:25:35 AM 31.4842 -92.0072 242° Southwest 356 410 38,000  Level Houston Center
Mon 09:26:37 AM 31.4406 -92.1003 241° Southwest 357 411 38,000  Level Houston Center
Mon 09:27:39 AM 31.3928 -92.2008 241° Southwest 357 411 38,000  Level Houston Center
Mon 09:28:41 AM 31.3467 -92.3036 242° Southwest 357 411 38,000  Level Houston Center
Mon 09:29:42 AM 31.2903 -92.4253 242° Southwest 356 410 38,000  Level Houston Center
Mon 09:30:44 AM 31.2442 -92.5281 242° Southwest 356 410 38,000  Level Houston Center
Mon 09:31:46 AM 31.2081 -92.6339 248° West 356 410 38,000  Level Houston Center
Mon 09:32:48 AM 31.1700 -92.7378 247° West 354 407 38,000  Level Houston Center
Mon 09:33:50 AM 31.1317 -92.8428 247° West 354 407 38,000 -339 Level Houston Center
Mon 09:34:52 AM 31.0914 -92.9481 246° West 354 407 37,300 -1,171 Descending Houston Center
Mon 09:35:53 AM 31.0519 -93.0553 247° West 357 411 35,600 -2,000 Descending Houston Center
Mon 09:36:55 AM 31.0028 -93.1858 246° West 367 422 33,200 -1,887 Descending Houston Center
Mon 09:37:57 AM 30.9611 -93.2981 247° West 375 432 31,700 -1,392 Descending Houston Center
Mon 09:39:00 AM 30.9175 -93.4144 246° West 389 448 30,300 -1,403 Descending Houston Center
Mon 09:40:01 AM 30.8728 -93.5331 246° West 398 458 28,800 -1,463 Descending Houston Center
Mon 09:41:03 AM 30.8272 -93.6528 246° West 404 465 27,300 -1,548 Descending Houston Center
Mon 09:42:05 AM 30.7725 -93.7978 246° West 409 471 25,600 -1,512 Descending Houston Center
Mon 09:43:06 AM 30.7272 -93.9150 246° West 407 468 24,200 -1,366 Descending Houston Center
Mon 09:44:08 AM 30.6836 -94.0300 246° West 396 456 22,800 -1,355 Descending Houston Center
Mon 09:45:10 AM 30.6422 -94.1397 246° West 380 437 21,400 -1,258 Descending Houston Center
Mon 09:46:12 AM 30.6000 -94.2492 246° West 377 434 20,200 -1,210 Descending Houston Center
Mon 09:47:14 AM 30.5581 -94.3572 246° West 371 427 18,900 -1,446 Descending Houston Center
Mon 09:47:35 AM 30.5375 -94.4144 247° West 367 422 18,200 -1,258 Descending Houston Center
Mon 09:48:16 AM 30.5167 -94.4636 244° Southwest 369 425 17,600 -1,279 Descending Houston Center
Mon 09:48:36 AM 30.4931 -94.5197 244° Southwest 363 418 16,900 -1,548 Descending Houston Center
Mon 09:49:18 AM 30.4514 -94.5878 235° Southwest 364 419 16,000 -1,309 Descending Houston Center
Mon 09:49:31 AM 30.4383 -94.6069 232° Southwest 363 418 15,700 -1,279 Descending Houston Center
Mon 09:50:19 AM 30.3908 -94.6806 233° Southwest 363 418 14,700 -1,279 Descending Houston Center
Mon 09:50:32 AM 30.3744 -94.7050 232° Southwest 361 415 14,400 -1,161 Descending Houston Center
Mon 09:51:21 AM 30.3344 -94.7683 234° Southwest 336 387 13,500 -1,200 Descending Houston Center
Mon 09:51:32 AM 30.3194 -94.7894 231° Southwest 302 348 13,200 -1,065 Descending Houston Center
Mon 09:52:23 AM 30.2783 -94.8528 233° Southwest 312 359 12,400 -1,377 Descending Houston Center
Mon 09:52:33 AM 30.2681 -94.8686 233° Southwest 309 356 11,800 -1,742 Descending Houston Center
Mon 09:53:25 AM 30.2300 -94.9283 234° Southwest 314 361 10,600 -1,343 Descending Houston Center
Mon 09:53:40 AM 30.2097 -94.9606 234° Southwest 318 366 10,300 -514 Descending Houston Center
Mon 09:54:35 AM 30.1639 -95.0314 233° Southwest 313 360 10,000 -165 Descending Houston Center
Mon 09:55:29 AM 30.1119 -95.0783 218° Southwest 321 369 10,000  Level Houston Center
Mon 09:55:42 AM 30.0775 -95.0953 203° Southwest 318 366 10,000  Level Houston Center
Mon 09:56:30 AM 30.0122 -95.1222 200° South 317 365 10,000  Level Houston Center
Mon 09:56:43 AM 29.9947 -95.1322 206° Southwest 323 372 10,000  Level Houston Center
Mon 09:57:32 AM 29.9275 -95.1606 200° South 322 371 10,000  Level Houston Center
Mon 09:57:44 AM 29.9078 -95.1692 201° Southwest 325 374 10,000 -194 Level Houston Center
Mon 09:58:34 AM 29.8517 -95.1911 199° South 322 371 9,800 -590 Descending Houston Center
Mon 09:58:45 AM 29.8272 -95.2056 207° Southwest 280 322 9,400 -1,742 Descending Houston Center
Mon 09:59:36 AM 29.7894 -95.2400 218° Southwest 283 326 8,000 -1,964 Descending Houston Center
Mon 09:59:40 AM 29.7733 -95.2581 224° Southwest 273 314 7,600 -1,935 Descending Houston Center
Mon 10:00:38 AM 29.7214 -95.3083 220° Southwest 273 314 6,000 -1,574 Descending Houston Center
Mon 10:00:41 AM 29.7175 -95.3128 225° Southwest 271 312 6,000  Level Houston Center
Mon 10:01:40 AM 29.6675 -95.3667 223° Southwest 271 312 6,000  Level Houston Center
Mon 10:01:42 AM 29.6639 -95.3697 216° Southwest 264 304 6,000 -871 Level Houston Center
Mon 10:02:42 AM 29.6122 -95.4250 223° Southwest 270 311 5,100 -1,075 Descending Houston Center
Mon 10:02:49 AM 29.6008 -95.4375 224° Southwest 260 299 4,800 -1,161 Descending Houston Center
Mon 10:03:44 AM 29.5589 -95.4781 220° Southwest 265 305 3,900 -984 Descending Houston Center
Mon 10:03:50 AM 29.5508 -95.4892 230° Southwest 226 260 3,800 -871 Descending Houston Center
Mon 10:04:46 AM 29.5211 -95.5306 230° Southwest 244 281 3,000 -787 Descending Houston Center
Mon 10:04:51 AM 29.5203 -95.5456 266° West 212 244 3,000 -484 Level Houston Center
Mon 10:05:48 AM 29.5167 -95.5925 265° West 213 245 2,500 -581 Descending Houston Center
Mon 10:05:53 AM 29.5197 -95.6103 281° West 189 217 2,400 -590 Descending Houston Center
Mon 10:06:49 AM 29.5267 -95.6550 280° West 197 227 1,900 -885 Descending Houston Center
Mon 10:06:54 AM 29.5464 -95.6506 11° North 149 171 1,500 -1,000 Descending Houston Center
Mon 10:07:55 AM 29.5825 -95.6533 356° North 137 158 800 -689 Descending Houston Center
Mon 10:09:00 AM 29.6222 -95.6565 356° North  Level Estimated

Login

Don't have an account? Register now (free) for customized features, flight alerts, and more!